createdAt,value
2023-04-07T00:00:59.929Z,69.10
2023-04-07T00:11:21.317Z,68.91
2023-04-07T00:21:42.665Z,69.10
2023-04-07T00:32:04.093Z,69.56
2023-04-07T00:42:25.678Z,70.28
2023-04-07T00:52:47.217Z,71.45
2023-04-07T01:03:29.114Z,70.75
2023-04-07T01:13:51.660Z,70.39
2023-04-07T01:24:13.012Z,69.91
2023-04-07T01:34:35.142Z,68.55
2023-04-07T01:44:57.442Z,68.52
2023-04-07T01:55:18.842Z,67.77
2023-04-07T02:05:40.406Z,67.03
2023-04-07T02:16:02.470Z,66.94
2023-04-07T02:26:23.901Z,66.79
2023-04-07T02:36:45.544Z,65.95
2023-04-07T02:47:06.979Z,67.43
2023-04-07T02:57:28.366Z,64.89
2023-04-07T03:07:49.718Z,66.16
2023-04-07T03:18:11.561Z,66.64
2023-04-07T03:28:32.937Z,65.97
2023-04-07T03:38:54.268Z,64.87
2023-04-07T03:49:15.668Z,66.20
2023-04-07T03:59:37.031Z,65.69
2023-04-07T04:09:58.393Z,64.88
2023-04-07T04:20:19.866Z,64.91
2023-04-07T04:30:41.213Z,65.52
2023-04-07T04:41:02.615Z,65.13
2023-04-07T04:51:24.168Z,65.64
2023-04-07T05:01:45.593Z,65.48
2023-04-07T05:12:07.278Z,65.70
2023-04-07T05:22:28.684Z,66.03
2023-04-07T05:32:50.369Z,65.85
2023-04-07T05:43:12.199Z,66.34
2023-04-07T05:53:33.611Z,66.31
2023-04-07T06:03:55.670Z,66.36
2023-04-07T06:14:17.379Z,64.49
2023-04-07T06:24:38.717Z,66.65
2023-04-07T06:35:01.038Z,66.07
2023-04-07T06:45:22.401Z,65.67
2023-04-07T06:55:43.772Z,65.87
2023-04-07T07:06:05.536Z,65.46
2023-04-07T07:16:27.005Z,65.50
2023-04-07T07:26:48.470Z,65.15
2023-04-07T07:37:09.844Z,64.60
2023-04-07T07:47:31.292Z,64.26
2023-04-07T07:57:52.824Z,64.16
2023-04-07T08:08:14.209Z,64.38
2023-04-07T08:18:35.891Z,64.22
2023-04-07T08:28:58.442Z,64.62
2023-04-07T08:39:19.920Z,63.99
2023-04-07T08:49:44.789Z,64.17
2023-04-07T09:00:08.125Z,62.17
2023-04-07T09:10:30.568Z,61.49
2023-04-07T09:20:54.977Z,60.53
2023-04-07T09:31:16.766Z,57.77
2023-04-07T09:41:38.225Z,55.10
2023-04-07T09:52:00.751Z,54.98
2023-04-07T10:02:23.032Z,54.55
2023-04-07T10:12:45.314Z,54.94
2023-04-07T10:23:13.234Z,55.61
2023-04-07T10:33:44.677Z,50.90
2023-04-07T10:44:06.792Z,53.90
2023-04-07T10:54:29.421Z,53.85
2023-04-07T11:04:51.104Z,52.79
2023-04-07T11:15:22.303Z,54.24
2023-04-07T11:25:44.937Z,54.09
2023-04-07T11:36:06.640Z,52.28
2023-04-07T11:46:28.473Z,53.31
2023-04-07T11:56:51.496Z,47.44
2023-04-07T12:07:12.868Z,51.43
2023-04-07T12:17:34.268Z,51.22
2023-04-07T12:27:55.782Z,52.64
2023-04-07T12:38:17.226Z,54.16
2023-04-07T12:48:38.576Z,50.55
2023-04-07T12:59:00.004Z,52.69
2023-04-07T13:09:21.373Z,53.70
2023-04-07T13:19:43.102Z,49.49
2023-04-07T13:30:04.794Z,53.11
2023-04-07T13:40:26.168Z,52.69
2023-04-07T13:50:47.582Z,52.81
2023-04-07T14:01:09.145Z,52.24
2023-04-07T14:11:30.648Z,42.50
2023-04-07T14:21:52.046Z,47.75
2023-04-07T14:32:13.538Z,50.27
2023-04-07T14:42:35.695Z,42.09
2023-04-07T14:52:57.054Z,51.20
2023-04-07T15:03:18.588Z,51.37
2023-04-07T15:13:40.275Z,51.37
2023-04-07T15:24:01.632Z,49.84
2023-04-07T15:34:23.033Z,40.55
2023-04-07T15:44:44.446Z,48.06
2023-04-07T15:55:05.992Z,49.90
2023-04-07T16:05:27.339Z,51.07
2023-04-07T16:15:48.740Z,52.03
2023-04-07T16:26:10.975Z,47.20
2023-04-07T16:36:32.403Z,50.12
2023-04-07T16:46:53.857Z,48.35
2023-04-07T16:57:15.758Z,47.77
2023-04-07T17:07:37.116Z,50.52
2023-04-07T17:17:58.746Z,39.22
2023-04-07T17:28:20.229Z,41.18
2023-04-07T17:38:41.577Z,49.50
2023-04-07T17:49:04.731Z,54.18
2023-04-07T17:59:26.112Z,52.88
2023-04-07T18:09:47.555Z,53.81
2023-04-07T18:20:09.243Z,51.93
2023-04-07T18:30:30.626Z,49.82
2023-04-07T18:40:51.975Z,57.24
2023-04-07T18:51:13.509Z,55.64
2023-04-07T19:01:35.028Z,57.15
2023-04-07T19:11:57.017Z,59.08
2023-04-07T19:22:19.363Z,58.06
2023-04-07T19:32:40.751Z,61.54
2023-04-07T19:43:02.197Z,62.29
2023-04-07T19:53:25.369Z,62.97
2023-04-07T20:03:47.002Z,63.01
2023-04-07T20:14:08.524Z,63.64
2023-04-07T20:24:30.372Z,64.96
2023-04-07T20:34:52.228Z,65.47
2023-04-07T20:45:13.889Z,66.13
2023-04-07T20:55:35.276Z,66.59
2023-04-07T21:05:57.346Z,66.78
2023-04-07T21:16:19.005Z,68.17
2023-04-07T21:26:40.474Z,68.70
2023-04-07T21:37:01.934Z,68.95
2023-04-07T21:47:23.402Z,68.97
2023-04-07T21:57:45.176Z,70.42
2023-04-07T22:08:06.598Z,70.26
2023-04-07T22:18:28.361Z,70.65
2023-04-07T22:28:49.788Z,71.31
2023-04-07T22:39:11.625Z,71.19
2023-04-07T22:49:33.094Z,73.12
2023-04-07T22:59:54.580Z,73.02
2023-04-07T23:10:16.094Z,72.95
2023-04-07T23:20:37.571Z,73.47
2023-04-07T23:30:58.990Z,74.86
2023-04-07T23:41:20.357Z,74.93
2023-04-07T23:51:41.762Z,74.68
